createdAt,value
2022-12-13T00:02:21.508Z,8.38
2022-12-13T00:05:25.337Z,8.31
2022-12-13T00:08:29.216Z,8.46
2022-12-13T00:11:34.872Z,8.39
2022-12-13T00:14:38.990Z,8.51
2022-12-13T00:17:42.919Z,8.09
2022-12-13T00:20:46.771Z,7.88
2022-12-13T00:23:51.347Z,7.84
2022-12-13T00:26:57.857Z,7.84
2022-12-13T00:30:01.716Z,7.98
2022-12-13T00:33:06.772Z,7.72
2022-12-13T00:36:11.432Z,7.81
2022-12-13T00:39:16.848Z,7.79
2022-12-13T00:42:22.216Z,7.79
2022-12-13T00:45:26.156Z,7.88
2022-12-13T00:48:29.910Z,7.69
2022-12-13T00:51:35.734Z,7.85
2022-12-13T00:54:39.597Z,7.60
2022-12-13T00:57:44.869Z,7.60
2022-12-13T01:00:48.696Z,7.59
2022-12-13T01:03:53.214Z,7.66
2022-12-13T01:06:57.091Z,7.77
2022-12-13T01:10:01.040Z,7.55
2022-12-13T01:13:06.429Z,7.66
2022-12-13T01:16:11.770Z,7.66
2022-12-13T01:19:16.340Z,7.28
2022-12-13T01:22:20.458Z,7.59
2022-12-13T01:25:24.338Z,7.63
2022-12-13T01:28:30.397Z,7.68
2022-12-13T01:31:34.858Z,7.33
2022-12-13T01:34:38.712Z,7.40
2022-12-13T01:37:43.396Z,7.40
2022-12-13T01:40:49.149Z,7.29
2022-12-13T01:43:57.577Z,7.35
2022-12-13T01:47:02.237Z,7.11
2022-12-13T01:50:10.810Z,7.28
2022-12-13T01:53:19.027Z,7.14
2022-12-13T01:56:27.156Z,7.37
2022-12-13T01:59:32.757Z,7.33
2022-12-13T02:02:37.636Z,7.52
2022-12-13T02:05:45.470Z,7.54
2022-12-13T02:08:49.025Z,7.58
2022-12-13T02:11:53.337Z,7.46
2022-12-13T02:15:01.110Z,7.20
2022-12-13T02:18:20.196Z,7.14
2022-12-13T02:21:30.831Z,6.93
2022-12-13T02:24:55.307Z,6.93
2022-12-13T02:28:30.536Z,6.91
2022-12-13T02:31:49.510Z,6.83
2022-12-13T02:34:58.454Z,6.63
2022-12-13T02:38:10.797Z,6.59
2022-12-13T02:41:19.698Z,6.61
2022-12-13T02:44:27.650Z,6.68
2022-12-13T02:47:34.990Z,6.62
2022-12-13T02:50:40.476Z,6.64
2022-12-13T02:53:45.818Z,6.54
2022-12-13T02:56:56.276Z,6.72
2022-12-13T03:00:05.318Z,6.65
2022-12-13T03:03:21.497Z,6.57
2022-12-13T03:06:36.637Z,6.45
2022-12-13T03:09:59.929Z,6.70
2022-12-13T03:13:25.649Z,6.79
2022-12-13T03:16:38.572Z,6.68
2022-12-13T03:19:44.290Z,6.71
2022-12-13T03:22:47.904Z,6.77
2022-12-13T03:25:54.816Z,6.80
2022-12-13T03:28:59.190Z,6.76
2022-12-13T03:32:06.351Z,6.92
2022-12-13T03:35:21.944Z,6.80
2022-12-13T03:38:27.252Z,7.01
2022-12-13T03:41:32.990Z,6.83
2022-12-13T03:44:36.930Z,6.75
2022-12-13T03:47:40.850Z,6.72
2022-12-13T03:50:46.035Z,6.74
2022-12-13T03:53:49.828Z,6.81
2022-12-13T03:56:53.790Z,6.72
2022-12-13T03:59:57.796Z,6.86
2022-12-13T04:03:01.713Z,6.78
2022-12-13T04:06:08.185Z,6.67
2022-12-13T04:09:12.135Z,6.90
2022-12-13T04:12:33.425Z,6.71
2022-12-13T04:15:37.617Z,6.72
2022-12-13T04:18:41.576Z,6.93
2022-12-13T04:21:46.809Z,6.90
2022-12-13T04:24:50.590Z,6.77
2022-12-13T04:27:54.656Z,6.46
2022-12-13T04:30:58.577Z,6.73
2022-12-13T04:34:02.411Z,6.68
2022-12-13T04:37:08.289Z,6.65
2022-12-13T04:40:13.224Z,6.71
2022-12-13T04:43:25.650Z,6.59
2022-12-13T04:46:29.239Z,6.46
2022-12-13T04:49:34.182Z,6.51
2022-12-13T04:52:39.886Z,6.76
2022-12-13T04:55:43.671Z,6.61
2022-12-13T04:58:47.735Z,6.71
2022-12-13T05:01:51.540Z,6.79
2022-12-13T05:04:55.282Z,6.89
2022-12-13T05:08:01.504Z,6.60
2022-12-13T05:11:05.650Z,6.59
2022-12-13T05:14:09.556Z,6.66
2022-12-13T05:17:13.549Z,6.71
2022-12-13T05:20:17.539Z,6.42
2022-12-13T05:23:24.436Z,6.72
2022-12-13T05:26:28.495Z,6.79
2022-12-13T05:29:32.456Z,6.81
2022-12-13T05:32:42.574Z,6.92
2022-12-13T05:35:46.749Z,6.71
2022-12-13T05:38:52.016Z,6.73
2022-12-13T05:42:01.749Z,6.56
2022-12-13T05:45:07.410Z,6.44
2022-12-13T05:48:11.577Z,6.64
2022-12-13T05:51:15.293Z,6.63
2022-12-13T05:54:20.589Z,6.58
2022-12-13T05:57:24.730Z,6.26
2022-12-13T06:00:30.894Z,6.37
2022-12-13T06:03:35.113Z,6.35
2022-12-13T06:06:39.098Z,6.46
2022-12-13T06:09:44.516Z,6.29
2022-12-13T06:12:48.463Z,6.25
2022-12-13T06:15:52.636Z,6.31
2022-12-13T06:19:05.509Z,6.08
2022-12-13T06:22:09.443Z,6.25
2022-12-13T06:25:30.957Z,6.38
2022-12-13T06:28:35.815Z,6.13
2022-12-13T06:31:39.655Z,5.80
2022-12-13T06:34:43.457Z,5.95
2022-12-13T06:37:47.344Z,6.17
2022-12-13T06:40:52.777Z,6.32
2022-12-13T06:43:56.558Z,6.10
2022-12-13T06:47:11.897Z,6.20
2022-12-13T06:50:16.857Z,6.27
2022-12-13T06:53:20.989Z,6.17
2022-12-13T06:56:26.277Z,6.21
2022-12-13T06:59:30.011Z,6.16
2022-12-13T07:02:34.197Z,6.29
2022-12-13T07:05:39.629Z,6.34
2022-12-13T07:08:52.077Z,6.13
2022-12-13T07:11:57.392Z,6.27
2022-12-13T07:15:01.335Z,6.14
2022-12-13T07:18:05.604Z,6.43
2022-12-13T07:21:21.932Z,6.38
2022-12-13T07:24:26.416Z,6.15
2022-12-13T07:27:31.769Z,6.26
2022-12-13T07:30:41.048Z,6.06
2022-12-13T07:33:45.769Z,6.28
2022-12-13T07:36:51.656Z,6.23
2022-12-13T07:40:01.105Z,6.22
2022-12-13T07:43:08.621Z,6.26
2022-12-13T07:46:13.048Z,6.33
2022-12-13T07:49:17.096Z,6.58
2022-12-13T07:52:21.030Z,6.29
2022-12-13T07:55:33.600Z,6.08
2022-12-13T07:58:42.440Z,6.48
2022-12-13T08:01:46.442Z,6.26
2022-12-13T08:04:54.368Z,6.13
2022-12-13T08:07:59.225Z,6.34
2022-12-13T08:11:03.955Z,6.37
2022-12-13T08:14:10.372Z,6.33
2022-12-13T08:17:14.411Z,6.12
2022-12-13T08:20:22.144Z,6.35
2022-12-13T08:23:26.598Z,6.07
2022-12-13T08:26:30.519Z,6.34
2022-12-13T08:29:36.790Z,6.52
2022-12-13T08:32:40.885Z,6.09
2022-12-13T08:35:45.229Z,6.39
2022-12-13T08:38:49.637Z,6.56
2022-12-13T08:41:53.440Z,6.45
2022-12-13T08:44:58.679Z,6.53
2022-12-13T08:48:03.479Z,6.54
2022-12-13T08:51:09.429Z,6.52
2022-12-13T08:54:13.456Z,6.64
2022-12-13T08:57:37.481Z,6.65
2022-12-13T09:00:43.211Z,6.69
2022-12-13T09:03:47.369Z,6.87
2022-12-13T09:06:51.290Z,6.63
2022-12-13T09:09:55.341Z,6.72
2022-12-13T09:13:01.282Z,6.86
2022-12-13T09:16:14.216Z,7.05
2022-12-13T09:19:27.122Z,7.15
2022-12-13T09:22:33.634Z,7.26
2022-12-13T09:25:38.893Z,7.52
2022-12-13T09:28:43.512Z,7.31
2022-12-13T09:31:53.049Z,7.08
2022-12-13T09:34:57.419Z,6.89
2022-12-13T09:38:01.350Z,7.20
2022-12-13T09:41:19.324Z,7.05
2022-12-13T09:44:32.293Z,6.91
2022-12-13T09:47:46.987Z,6.79
2022-12-13T09:51:17.272Z,7.26
2022-12-13T09:54:20.969Z,7.38
2022-12-13T09:57:30.947Z,7.62
2022-12-13T10:00:37.679Z,7.76
2022-12-13T10:03:48.336Z,8.29
2022-12-13T10:06:55.097Z,8.44
2022-12-13T10:10:02.636Z,8.86
2022-12-13T10:13:16.458Z,9.17
2022-12-13T10:16:27.836Z,9.04
2022-12-13T10:19:44.855Z,9.07
2022-12-13T10:23:15.129Z,9.92
2022-12-13T10:26:24.184Z,10.10
2022-12-13T10:29:28.896Z,10.82
2022-12-13T10:32:37.311Z,10.35
2022-12-13T10:35:43.390Z,10.49
2022-12-13T10:38:48.089Z,10.24
2022-12-13T10:42:04.915Z,11.26
2022-12-13T10:45:23.815Z,11.64
2022-12-13T10:48:38.992Z,11.64
2022-12-13T10:51:45.056Z,12.19
2022-12-13T10:54:51.335Z,11.86
2022-12-13T10:57:57.639Z,12.14
2022-12-13T11:01:10.963Z,12.06
2022-12-13T11:04:28.183Z,11.86
2022-12-13T11:07:34.936Z,11.45
2022-12-13T11:10:39.864Z,11.30
2022-12-13T11:13:47.536Z,10.94
2022-12-13T11:16:53.798Z,10.64
2022-12-13T11:19:59.709Z,10.89
2022-12-13T11:23:08.457Z,10.89
2022-12-13T11:26:23.963Z,10.80
2022-12-13T11:29:52.821Z,10.56
2022-12-13T11:33:16.237Z,10.23
2022-12-13T11:36:33.476Z,10.22
2022-12-13T11:39:43.409Z,10.29
2022-12-13T11:42:53.497Z,10.34
2022-12-13T11:46:01.707Z,10.45
2022-12-13T11:49:11.878Z,10.63
2022-12-13T11:52:20.576Z,10.70
2022-12-13T11:55:36.276Z,10.87
2022-12-13T11:59:03.084Z,11.39
2022-12-13T12:02:16.756Z,11.48
2022-12-13T12:05:29.811Z,11.78
2022-12-13T12:08:40.976Z,11.68
2022-12-13T12:11:52.996Z,11.78
2022-12-13T12:15:05.648Z,11.87
2022-12-13T12:18:19.636Z,11.66
2022-12-13T12:22:04.945Z,11.68
2022-12-13T12:25:15.510Z,11.46
2022-12-13T12:28:34.709Z,11.48
2022-12-13T12:31:50.911Z,11.80
2022-12-13T12:35:06.916Z,11.65
2022-12-13T12:38:28.742Z,11.56
2022-12-13T12:41:45.530Z,11.46
2022-12-13T12:45:05.516Z,11.48
2022-12-13T12:51:56.933Z,11.64
2022-12-13T12:55:12.263Z,11.28
2022-12-13T12:58:25.454Z,11.41
2022-12-13T13:01:47.001Z,11.54
2022-12-13T13:04:56.696Z,11.48
2022-12-13T13:08:07.191Z,11.41
2022-12-13T13:11:24.831Z,11.61
2022-12-13T13:14:36.729Z,11.55
2022-12-13T13:17:48.855Z,11.70
2022-12-13T13:21:33.392Z,11.21
2022-12-13T13:24:37.249Z,11.13
2022-12-13T13:27:44.276Z,10.96
2022-12-13T13:31:06.143Z,11.02
2022-12-13T13:34:25.813Z,10.95
2022-12-13T13:37:47.594Z,10.93
2022-12-13T13:40:51.484Z,11.02
2022-12-13T13:43:55.516Z,10.84
2022-12-13T13:47:15.494Z,10.58
2022-12-13T13:50:54.628Z,10.72
2022-12-13T13:54:50.271Z,10.55
2022-12-13T13:58:31.396Z,10.28
2022-12-13T14:02:17.366Z,10.18
2022-12-13T14:05:54.112Z,9.93
2022-12-13T14:09:39.453Z,9.85
2022-12-13T14:13:16.292Z,9.91
2022-12-13T14:16:55.589Z,9.78
2022-12-13T14:20:45.660Z,9.81
2022-12-13T14:24:04.637Z,9.97
2022-12-13T14:27:21.170Z,9.94
2022-12-13T14:30:29.205Z,9.85
2022-12-13T14:33:33.470Z,9.73
2022-12-13T14:36:39.396Z,9.62
2022-12-13T14:39:46.628Z,9.69
2022-12-13T14:42:55.076Z,9.51
2022-12-13T14:46:00.978Z,9.58
2022-12-13T14:49:07.728Z,9.64
2022-12-13T14:52:27.000Z,9.52
2022-12-13T14:55:33.956Z,9.58
2022-12-13T14:58:38.489Z,9.57
2022-12-13T15:01:43.457Z,9.58
2022-12-13T15:04:48.557Z,9.70
2022-12-13T15:07:54.238Z,9.61
2022-12-13T15:11:03.085Z,9.51
2022-12-13T15:14:16.691Z,9.38
2022-12-13T15:17:28.316Z,9.49
2022-12-13T15:20:35.330Z,9.43
2022-12-13T15:23:48.882Z,9.40
2022-12-13T15:26:59.202Z,9.38
2022-12-13T15:30:03.238Z,9.07
2022-12-13T15:33:09.863Z,8.99
2022-12-13T15:36:18.532Z,8.89
2022-12-13T15:39:25.697Z,8.75
2022-12-13T15:42:33.556Z,8.22
2022-12-13T15:45:37.819Z,8.18
2022-12-13T15:48:48.895Z,8.18
2022-12-13T15:51:57.655Z,7.86
2022-12-13T15:55:28.667Z,8.05
2022-12-13T15:58:35.675Z,8.04
2022-12-13T16:01:39.617Z,7.70
2022-12-13T16:04:43.776Z,7.55
2022-12-13T16:07:56.315Z,7.67
2022-12-13T16:11:02.475Z,7.62
2022-12-13T16:14:29.574Z,7.55
2022-12-13T16:17:34.835Z,7.73
2022-12-13T16:20:38.868Z,7.80
2022-12-13T16:23:48.918Z,8.06
2022-12-13T16:26:54.616Z,8.28
2022-12-13T16:29:58.510Z,8.33
2022-12-13T16:33:18.842Z,8.26
2022-12-13T16:36:26.276Z,8.10
2022-12-13T16:39:30.271Z,8.13
2022-12-13T16:42:35.710Z,7.99
2022-12-13T16:45:43.110Z,7.98
2022-12-13T16:48:47.156Z,7.97
2022-12-13T16:51:50.977Z,7.83
2022-12-13T16:54:54.917Z,7.88
2022-12-13T16:58:02.254Z,7.81
2022-12-13T17:01:11.324Z,7.80
2022-12-13T17:04:20.642Z,7.49
2022-12-13T17:07:25.276Z,7.85
2022-12-13T17:10:29.897Z,7.76
2022-12-13T17:13:35.098Z,7.71
2022-12-13T17:16:39.093Z,7.72
2022-12-13T17:19:43.112Z,7.80
2022-12-13T17:22:47.675Z,7.50
2022-12-13T17:25:58.047Z,7.50
2022-12-13T17:29:04.853Z,7.03
2022-12-13T17:32:08.750Z,7.13
2022-12-13T17:35:17.879Z,7.26
2022-12-13T17:38:22.204Z,7.12
2022-12-13T17:41:26.358Z,7.09
2022-12-13T17:44:31.923Z,7.10
2022-12-13T17:47:35.857Z,7.27
2022-12-13T17:50:39.917Z,7.34
2022-12-13T17:53:45.533Z,6.84
2022-12-13T17:56:49.376Z,6.80
2022-12-13T17:59:54.689Z,6.94
2022-12-13T18:02:58.866Z,6.58
2022-12-13T18:06:02.596Z,6.72
2022-12-13T18:09:06.736Z,6.81
2022-12-13T18:12:10.716Z,6.77
2022-12-13T18:15:16.090Z,6.62
2022-12-13T18:18:20.759Z,6.66
2022-12-13T18:21:28.137Z,6.59
2022-12-13T18:24:32.204Z,6.45
2022-12-13T18:27:36.353Z,6.47
2022-12-13T18:30:41.744Z,6.61
2022-12-13T18:33:47.836Z,6.46
2022-12-13T18:36:52.004Z,6.39
2022-12-13T18:39:55.979Z,6.40
2022-12-13T18:42:59.849Z,6.37
2022-12-13T18:46:06.101Z,6.08
2022-12-13T18:49:12.132Z,5.99
2022-12-13T18:52:15.910Z,5.76
2022-12-13T18:55:19.769Z,5.63
2022-12-13T18:58:23.610Z,5.82
2022-12-13T19:01:29.035Z,5.95
2022-12-13T19:04:35.143Z,5.55
2022-12-13T19:07:39.296Z,5.46
2022-12-13T19:10:46.495Z,5.59
2022-12-13T19:13:50.996Z,5.41
2022-12-13T19:16:56.397Z,5.32
2022-12-13T19:20:02.358Z,5.32
2022-12-13T19:23:06.115Z,5.33
2022-12-13T19:26:11.255Z,5.10
2022-12-13T19:29:16.116Z,5.02
2022-12-13T19:32:21.883Z,5.15
2022-12-13T19:35:26.315Z,5.18
2022-12-13T19:38:30.250Z,5.35
2022-12-13T19:41:34.269Z,5.30
2022-12-13T19:44:38.070Z,5.27
2022-12-13T19:47:43.329Z,5.16
2022-12-13T19:50:52.730Z,5.33
2022-12-13T19:53:56.672Z,5.11
2022-12-13T19:57:06.871Z,4.93
2022-12-13T20:00:13.149Z,4.96
2022-12-13T20:03:19.022Z,5.09
2022-12-13T20:06:24.476Z,5.05
2022-12-13T20:09:29.909Z,5.13
2022-12-13T20:12:38.960Z,5.20
2022-12-13T20:15:48.646Z,5.18
2022-12-13T20:18:57.856Z,5.32
2022-12-13T20:22:01.596Z,5.29
2022-12-13T20:25:07.338Z,5.12
2022-12-13T20:28:16.226Z,5.06
2022-12-13T20:31:21.777Z,4.88
2022-12-13T20:34:27.156Z,4.71
2022-12-13T20:37:31.595Z,4.69
2022-12-13T20:40:35.549Z,4.82
2022-12-13T20:43:39.698Z,4.68
2022-12-13T20:46:43.581Z,4.82
2022-12-13T20:49:49.200Z,4.88
2022-12-13T20:52:53.630Z,4.98
2022-12-13T20:55:58.569Z,4.76
2022-12-13T20:59:03.091Z,5.13
2022-12-13T21:02:06.980Z,4.92
2022-12-13T21:05:17.569Z,4.99
2022-12-13T21:08:41.898Z,5.07
2022-12-13T21:11:47.818Z,4.77
2022-12-13T21:14:51.589Z,4.68
2022-12-13T21:17:57.796Z,4.59
2022-12-13T21:21:03.129Z,4.90
2022-12-13T21:24:07.829Z,4.73
2022-12-13T21:27:11.610Z,4.69
2022-12-13T21:30:15.937Z,4.62
2022-12-13T21:33:19.816Z,4.98
2022-12-13T21:36:26.809Z,4.86
2022-12-13T21:39:31.215Z,5.03
2022-12-13T21:42:34.996Z,4.96
2022-12-13T21:45:38.952Z,4.83
2022-12-13T21:48:44.157Z,4.80
2022-12-13T21:51:49.401Z,4.71
2022-12-13T21:55:15.312Z,4.98
2022-12-13T21:58:34.529Z,4.88
2022-12-13T22:01:55.690Z,4.92
2022-12-13T22:05:00.555Z,4.85
2022-12-13T22:08:06.677Z,4.78
2022-12-13T22:11:21.369Z,4.72
2022-12-13T22:14:27.691Z,4.99
2022-12-13T22:17:35.804Z,4.92
2022-12-13T22:20:40.092Z,5.06
2022-12-13T22:23:45.516Z,4.85
2022-12-13T22:26:49.271Z,4.92
2022-12-13T22:29:53.756Z,5.31
2022-12-13T22:32:57.709Z,5.06
2022-12-13T22:36:02.810Z,5.39
2022-12-13T22:39:08.335Z,5.43
2022-12-13T22:42:12.597Z,5.00
2022-12-13T22:45:16.595Z,5.03
2022-12-13T22:48:20.416Z,4.96
2022-12-13T22:51:24.290Z,4.87
2022-12-13T22:54:29.658Z,5.06
2022-12-13T22:57:33.417Z,5.01
2022-12-13T23:00:37.267Z,4.93
2022-12-13T23:03:42.717Z,4.97
2022-12-13T23:06:46.766Z,4.95
2022-12-13T23:09:52.155Z,5.00
2022-12-13T23:13:03.814Z,5.09
2022-12-13T23:16:08.448Z,5.19
2022-12-13T23:19:41.053Z,5.00
2022-12-13T23:22:38.609Z,4.89
2022-12-13T23:25:43.876Z,4.93
2022-12-13T23:28:55.171Z,4.98
2022-12-13T23:31:58.917Z,5.00
2022-12-13T23:35:02.895Z,5.23
2022-12-13T23:38:06.715Z,5.01
2022-12-13T23:41:14.335Z,4.94
2022-12-13T23:44:18.210Z,5.06
2022-12-13T23:47:22.096Z,4.81
2022-12-13T23:50:26.033Z,4.49
2022-12-13T23:53:30.197Z,4.93
2022-12-13T23:56:36.392Z,5.19
2022-12-13T23:59:40.916Z,5.38
